Dominia — ICFW — position and weather

sailwx.info

Track history (hours):
 
Tides and Currents Weather Stations Pressure Air Temp Water Temp Dewpoint Dewpoint Depression Visibility Wind Speed Wind Dir Waves Ship Positions

Dominia

Last reported at 2015-Feb-23 08:31 UTC. Time now 2015-Feb-27 06:07 UTC.
Position N 37°46' E 024°21'.

Length 176 m; draft 9.5 m.

Type: Ship (hazmat cat A). MMSI: 247273400.

Date/timePositionNaut miles runAvg speedWind from/ knotsBaromVisibWave heightAir tempDewpointWater temp
2015-Feb-23 08:31N 37°46' E 024°21'313 7.6
2015-Feb-21 15:08N 41°26' E 029°12'3 4.7
2015-Feb-21 14:32N 41°23' E 029°14'4 4.5
2015-Feb-21 13:33N 41°19' E 029°16'0 0.4
2015-Feb-21 12:32N 41°19' E 029°16'1 0.8
2015-Feb-21 11:32N 41°20' E 029°17'1 0.9
2015-Feb-21 10:32N 41°21' E 029°17'1 0.7
2015-Feb-21 09:32N 41°21' E 029°18'0 0.4
2015-Feb-21 08:32N 41°22' E 029°18'1 0.5
2015-Feb-21 07:32N 41°22' E 029°18'0 0.4
2015-Feb-21 06:32N 41°23' E 029°18'0 0.4
2015-Feb-21 05:32N 41°23' E 029°18'0 0.1
2015-Feb-21 04:32N 41°23' E 029°18'5 0.8
2015-Feb-20 22:29N 41°28' E 029°18'2 1.8
2015-Feb-20 21:33N 41°26' E 029°18'1 0.5
2015-Feb-20 20:32N 41°26' E 029°19'2 1.6
2015-Feb-20 19:33N 41°28' E 029°18'8 7.7
2015-Feb-20 18:33N 41°30' E 029°28'37312.4
2015-Feb-19 12:33N 44°18' E 037°02'1313.2
2015-Feb-19 11:33N 44°24' E 037°19'1313.2
2015-Feb-19 10:33N 44°30' E 037°35'1212.0
2015-Feb-19 09:33N 44°37' E 037°49'7 6.6
2015-Feb-19 08:33N 44°44' E 037°47'0 0.1
2015-Feb-19 07:31N 44°44' E 037°47'0 0.0
2015-Feb-19 06:31N 44°44' E 037°47'0 0.0
2015-Feb-19 05:31N 44°44' E 037°47'0 0.0
2015-Feb-19 04:31N 44°44' E 037°47'0 0.0
2015-Feb-19 03:31N 44°44' E 037°47'0 0.0
2015-Feb-19 02:31N 44°44' E 037°47'0 0.0
2015-Feb-19 01:31N 44°44' E 037°47'0 0.0
2015-Feb-19 00:31N 44°44' E 037°47'0 0.0
2015-Feb-18 23:31N 44°44' E 037°47'0 0.0
2015-Feb-18 22:31N 44°44' E 037°47'0 0.0
2015-Feb-18 21:31N 44°44' E 037°47'0 0.0
2015-Feb-18 20:31N 44°44' E 037°47'0 0.0
2015-Feb-18 19:31N 44°44' E 037°47'0 0.0
2015-Feb-18 18:31N 44°44' E 037°47'0 0.0
2015-Feb-18 17:31N 44°44' E 037°47'0 0.0
2015-Feb-18 16:31N 44°44' E 037°47'0 0.0
2015-Feb-18 15:31N 44°44' E 037°47'0 0.0
2015-Feb-18 14:31N 44°44' E 037°47'0 0.0
2015-Feb-18 10:19N 44°44' E 037°47'0 0.0
2015-Feb-18 09:31N 44°44' E 037°47'0 0.0
2015-Feb-18 08:31N 44°44' E 037°47'0 0.0
2015-Feb-18 07:31N 44°44' E 037°47'0 0.0
2015-Feb-18 06:31N 44°44' E 037°47'0 0.0
2015-Feb-18 05:31N 44°44' E 037°47'0 0.0
2015-Feb-18 04:31N 44°44' E 037°47'0 0.0
2015-Feb-18 03:31N 44°44' E 037°47'0 0.0
2015-Feb-18 02:31N 44°44' E 037°47'0 0.0
2015-Feb-18 01:31N 44°44' E 037°47'0 0.0
2015-Feb-18 00:28N 44°44' E 037°47'0 0.0
2015-Feb-17 23:31N 44°44' E 037°47'0 0.0
2015-Feb-17 22:31N 44°44' E 037°47'0 0.0
2015-Feb-17 21:31N 44°44' E 037°47'0 0.0
2015-Feb-17 20:31N 44°44' E 037°47'0 0.0
2015-Feb-17 19:31N 44°44' E 037°47'0 0.0
2015-Feb-17 17:31N 44°44' E 037°47'0 0.0
2015-Feb-17 16:28N 44°44' E 037°47'0 0.0
2015-Feb-17 15:31N 44°44' E 037°47'0 0.0
2015-Feb-17 14:31N 44°44' E 037°47'0 0.0
2015-Feb-17 13:31N 44°44' E 037°47'0 0.0
2015-Feb-17 12:31N 44°44' E 037°47'0 0.0
2015-Feb-17 11:31N 44°44' E 037°47'0 0.0
2015-Feb-17 10:31N 44°44' E 037°47'0 0.0
2015-Feb-17 09:31N 44°44' E 037°47'0 0.0
2015-Feb-17 08:31N 44°44' E 037°47'0 0.0
2015-Feb-17 07:31N 44°44' E 037°47'0 0.0
2015-Feb-17 06:31N 44°44' E 037°47'0 0.0
2015-Feb-17 05:31N 44°44' E 037°47'0 0.0
2015-Feb-17 04:31N 44°44' E 037°47'0 0.0
2015-Feb-17 03:31N 44°44' E 037°47'0 0.0
2015-Feb-17 02:31N 44°44' E 037°47'0 0.0
2015-Feb-17 01:31N 44°44' E 037°47'0 0.0
2015-Feb-17 00:25N 44°44' E 037°47'0 0.0
2015-Feb-16 23:31N 44°44' E 037°47'0 0.0
2015-Feb-16 22:31N 44°44' E 037°47'0 0.0
2015-Feb-16 21:31N 44°44' E 037°47'0 0.0
2015-Feb-16 20:31N 44°44' E 037°47'0 0.0
2015-Feb-16 19:31N 44°44' E 037°47'0 0.0
2015-Feb-16 18:31N 44°44' E 037°47'0 0.0
2015-Feb-16 17:31N 44°44' E 037°47'0 0.0
2015-Feb-16 16:31N 44°44' E 037°47'0 0.0
2015-Feb-16 15:31N 44°44' E 037°47'0 0.0
2015-Feb-16 14:31N 44°44' E 037°47'0 0.0
2015-Feb-16 13:31N 44°44' E 037°47'0 0.0
2015-Feb-16 12:31N 44°44' E 037°47'0 0.0
2015-Feb-16 11:31N 44°44' E 037°47'0 0.0
2015-Feb-16 10:31N 44°44' E 037°47'0 0.0
2015-Feb-16 09:31N 44°44' E 037°47'0 0.0
2015-Feb-16 08:31N 44°44' E 037°47'0 0.0
2015-Feb-16 07:31N 44°44' E 037°47'0 0.0
2015-Feb-16 06:28N 44°44' E 037°47'0 0.0
2015-Feb-16 05:31N 44°44' E 037°47'0 0.0
2015-Feb-16 04:31N 44°44' E 037°47'0 0.0
2015-Feb-16 03:31N 44°44' E 037°47'0 0.0
2015-Feb-16 02:31N 44°44' E 037°47'0 0.0
2015-Feb-16 01:31N 44°44' E 037°47'0 0.0
2015-Feb-16 00:31N 44°44' E 037°47'0 0.3
2015-Feb-15 23:34N 44°44' E 037°47'6 6.4
2015-Feb-15 22:34N 44°38' E 037°52'8 8.0
2015-Feb-15 21:34N 44°30' E 037°48'3 2.9
2015-Feb-15 20:33N 44°28' E 037°47'1 0.7
2015-Feb-15 19:33N 44°28' E 037°48'1 0.8
2015-Feb-15 18:33N 44°28' E 037°49'1 0.7
2015-Feb-15 17:33N 44°29' E 037°50'1 0.7
2015-Feb-15 16:33N 44°29' E 037°50'0 0.5
2015-Feb-15 15:33N 44°30' E 037°51'0 0.5
2015-Feb-15 14:33N 44°30' E 037°51'1 0.5
2015-Feb-15 13:33N 44°31' E 037°51'0 0.3
2015-Feb-15 12:33N 44°31' E 037°51'0 0.2
2015-Feb-15 11:33N 44°31' E 037°50'0 0.1
2015-Feb-15 10:33N 44°31' E 037°50'0 0.2
2015-Feb-15 09:33N 44°31' E 037°51'0 0.4
2015-Feb-15 08:33N 44°31' E 037°51'4 4.3
2015-Feb-15 07:33N 44°30' E 037°45'1312.8
2015-Feb-15 06:34N 44°24' E 037°30'1413.0
2015-Feb-15 05:27N 44°18' E 037°12'38712.5
2015-Feb-13 22:33N 41°20' E 029°23'  
Track history (hours):
 
Tides and Currents Weather Stations Pressure Air Temp Water Temp Dewpoint Dewpoint Depression Visibility Wind Speed Wind Dir Waves Ship Positions

Dominia

Last reported at 2015-Feb-23 08:31 UTC. Time now 2015-Feb-27 06:07 UTC.
Position N 37°46' E 024°21'.

Length 176 m; draft 9.5 m.

Type: Ship (hazmat cat A). MMSI: 247273400.

Date/timePositionNaut miles runAvg speedWind from/ knotsBaromVisibWave heightAir tempDewpointWater temp
2015-Feb-23 08:31N 37°46' E 024°21'313 7.6
2015-Feb-21 15:08N 41°26' E 029°12'3 4.7
2015-Feb-21 14:32N 41°23' E 029°14'4 4.5
2015-Feb-21 13:33N 41°19' E 029°16'0 0.4
2015-Feb-21 12:32N 41°19' E 029°16'1 0.8
2015-Feb-21 11:32N 41°20' E 029°17'1 0.9
2015-Feb-21 10:32N 41°21' E 029°17'1 0.7
2015-Feb-21 09:32N 41°21' E 029°18'0 0.4
2015-Feb-21 08:32N 41°22' E 029°18'1 0.5
2015-Feb-21 07:32N 41°22' E 029°18'0 0.4
2015-Feb-21 06:32N 41°23' E 029°18'0 0.4
2015-Feb-21 05:32N 41°23' E 029°18'0 0.1
2015-Feb-21 04:32N 41°23' E 029°18'5 0.8
2015-Feb-20 22:29N 41°28' E 029°18'2 1.8
2015-Feb-20 21:33N 41°26' E 029°18'1 0.5
2015-Feb-20 20:32N 41°26' E 029°19'2 1.6
2015-Feb-20 19:33N 41°28' E 029°18'8 7.7
2015-Feb-20 18:33N 41°30' E 029°28'37312.4
2015-Feb-19 12:33N 44°18' E 037°02'1313.2
2015-Feb-19 11:33N 44°24' E 037°19'1313.2
2015-Feb-19 10:33N 44°30' E 037°35'1212.0
2015-Feb-19 09:33N 44°37' E 037°49'7 6.6
2015-Feb-19 08:33N 44°44' E 037°47'0 0.1
2015-Feb-19 07:31N 44°44' E 037°47'0 0.0
2015-Feb-19 06:31N 44°44' E 037°47'0 0.0
2015-Feb-19 05:31N 44°44' E 037°47'0 0.0
2015-Feb-19 04:31N 44°44' E 037°47'0 0.0
2015-Feb-19 03:31N 44°44' E 037°47'0 0.0
2015-Feb-19 02:31N 44°44' E 037°47'0 0.0
2015-Feb-19 01:31N 44°44' E 037°47'0 0.0
2015-Feb-19 00:31N 44°44' E 037°47'0 0.0
2015-Feb-18 23:31N 44°44' E 037°47'0 0.0
2015-Feb-18 22:31N 44°44' E 037°47'0 0.0
2015-Feb-18 21:31N 44°44' E 037°47'0 0.0
2015-Feb-18 20:31N 44°44' E 037°47'0 0.0
2015-Feb-18 19:31N 44°44' E 037°47'0 0.0
2015-Feb-18 18:31N 44°44' E 037°47'0 0.0
2015-Feb-18 17:31N 44°44' E 037°47'0 0.0
2015-Feb-18 16:31N 44°44' E 037°47'0 0.0
2015-Feb-18 15:31N 44°44' E 037°47'0 0.0
2015-Feb-18 14:31N 44°44' E 037°47'0 0.0
2015-Feb-18 10:19N 44°44' E 037°47'0 0.0
2015-Feb-18 09:31N 44°44' E 037°47'0 0.0
2015-Feb-18 08:31N 44°44' E 037°47'0 0.0
2015-Feb-18 07:31N 44°44' E 037°47'0 0.0
2015-Feb-18 06:31N 44°44' E 037°47'0 0.0
2015-Feb-18 05:31N 44°44' E 037°47'0 0.0
2015-Feb-18 04:31N 44°44' E 037°47'0 0.0
2015-Feb-18 03:31N 44°44' E 037°47'0 0.0
2015-Feb-18 02:31N 44°44' E 037°47'0 0.0
2015-Feb-18 01:31N 44°44' E 037°47'0 0.0
2015-Feb-18 00:28N 44°44' E 037°47'0 0.0
2015-Feb-17 23:31N 44°44' E 037°47'0 0.0
2015-Feb-17 22:31N 44°44' E 037°47'0 0.0
2015-Feb-17 21:31N 44°44' E 037°47'0 0.0
2015-Feb-17 20:31N 44°44' E 037°47'0 0.0
2015-Feb-17 19:31N 44°44' E 037°47'0 0.0
2015-Feb-17 17:31N 44°44' E 037°47'0 0.0
2015-Feb-17 16:28N 44°44' E 037°47'0 0.0
2015-Feb-17 15:31N 44°44' E 037°47'0 0.0
2015-Feb-17 14:31N 44°44' E 037°47'0 0.0
2015-Feb-17 13:31N 44°44' E 037°47'0 0.0
2015-Feb-17 12:31N 44°44' E 037°47'0 0.0
2015-Feb-17 11:31N 44°44' E 037°47'0 0.0
2015-Feb-17 10:31N 44°44' E 037°47'0 0.0
2015-Feb-17 09:31N 44°44' E 037°47'0 0.0
2015-Feb-17 08:31N 44°44' E 037°47'0 0.0
2015-Feb-17 07:31N 44°44' E 037°47'0 0.0
2015-Feb-17 06:31N 44°44' E 037°47'0 0.0
2015-Feb-17 05:31N 44°44' E 037°47'0 0.0
2015-Feb-17 04:31N 44°44' E 037°47'0 0.0
2015-Feb-17 03:31N 44°44' E 037°47'0 0.0
2015-Feb-17 02:31N 44°44' E 037°47'0 0.0
2015-Feb-17 01:31N 44°44' E 037°47'0 0.0
2015-Feb-17 00:25N 44°44' E 037°47'0 0.0
2015-Feb-16 23:31N 44°44' E 037°47'0 0.0
2015-Feb-16 22:31N 44°44' E 037°47'0 0.0
2015-Feb-16 21:31N 44°44' E 037°47'0 0.0
2015-Feb-16 20:31N 44°44' E 037°47'0 0.0
2015-Feb-16 19:31N 44°44' E 037°47'0 0.0
2015-Feb-16 18:31N 44°44' E 037°47'0 0.0
2015-Feb-16 17:31N 44°44' E 037°47'0 0.0
2015-Feb-16 16:31N 44°44' E 037°47'0 0.0
2015-Feb-16 15:31N 44°44' E 037°47'0 0.0
2015-Feb-16 14:31N 44°44' E 037°47'0 0.0
2015-Feb-16 13:31N 44°44' E 037°47'0 0.0
2015-Feb-16 12:31N 44°44' E 037°47'0 0.0
2015-Feb-16 11:31N 44°44' E 037°47'0 0.0
2015-Feb-16 10:31N 44°44' E 037°47'0 0.0
2015-Feb-16 09:31N 44°44' E 037°47'0 0.0
2015-Feb-16 08:31N 44°44' E 037°47'0 0.0
2015-Feb-16 07:31N 44°44' E 037°47'0 0.0
2015-Feb-16 06:28N 44°44' E 037°47'0 0.0
2015-Feb-16 05:31N 44°44' E 037°47'0 0.0
2015-Feb-16 04:31N 44°44' E 037°47'0 0.0
2015-Feb-16 03:31N 44°44' E 037°47'0 0.0
2015-Feb-16 02:31N 44°44' E 037°47'0 0.0
2015-Feb-16 01:31N 44°44' E 037°47'0 0.0
2015-Feb-16 00:31N 44°44' E 037°47'0 0.3
2015-Feb-15 23:34N 44°44' E 037°47'6 6.4
2015-Feb-15 22:34N 44°38' E 037°52'8 8.0
2015-Feb-15 21:34N 44°30' E 037°48'3 2.9
2015-Feb-15 20:33N 44°28' E 037°47'1 0.7
2015-Feb-15 19:33N 44°28' E 037°48'1 0.8
2015-Feb-15 18:33N 44°28' E 037°49'1 0.7
2015-Feb-15 17:33N 44°29' E 037°50'1 0.7
2015-Feb-15 16:33N 44°29' E 037°50'0 0.5
2015-Feb-15 15:33N 44°30' E 037°51'0 0.5
2015-Feb-15 14:33N 44°30' E 037°51'1 0.5
2015-Feb-15 13:33N 44°31' E 037°51'0 0.3
2015-Feb-15 12:33N 44°31' E 037°51'0 0.2
2015-Feb-15 11:33N 44°31' E 037°50'0 0.1
2015-Feb-15 10:33N 44°31' E 037°50'0 0.2
2015-Feb-15 09:33N 44°31' E 037°51'0 0.4
2015-Feb-15 08:33N 44°31' E 037°51'4 4.3
2015-Feb-15 07:33N 44°30' E 037°45'1312.8
2015-Feb-15 06:34N 44°24' E 037°30'1413.0
2015-Feb-15 05:27N 44°18' E 037°12'38712.5
2015-Feb-13 22:33N 41°20' E 029°23'  

Dump ship's entire track history